sensor_id;sensor_type;location;lat;lon;timestamp;P1;durP1;ratioP1;P2;durP2;ratioP2
27847;SDS011;15212;48.830;8.730;2023-07-28T00:00:17;3.83;;;2.80;;
27847;SDS011;15212;48.830;8.730;2023-07-28T00:02:45;5.83;;;2.80;;
27847;SDS011;15212;48.830;8.730;2023-07-28T00:05:13;5.35;;;2.60;;
27847;SDS011;15212;48.830;8.730;2023-07-28T00:07:42;3.98;;;2.67;;
27847;SDS011;15212;48.830;8.730;2023-07-28T00:10:10;4.28;;;2.85;;
27847;SDS011;15212;48.830;8.730;2023-07-28T00:12:39;3.70;;;2.65;;
27847;SDS011;15212;48.830;8.730;2023-07-28T00:15:07;6.55;;;3.02;;
27847;SDS011;15212;48.830;8.730;2023-07-28T00:17:36;4.45;;;2.90;;
27847;SDS011;15212;48.830;8.730;2023-07-28T00:20:05;6.60;;;3.20;;
27847;SDS011;15212;48.830;8.730;2023-07-28T00:22:35;4.72;;;2.92;;
27847;SDS011;15212;48.830;8.730;2023-07-28T00:25:03;4.10;;;2.87;;
27847;SDS011;15212;48.830;8.730;2023-07-28T00:27:32;3.98;;;2.50;;
27847;SDS011;15212;48.830;8.730;2023-07-28T00:30:00;5.65;;;2.80;;
27847;SDS011;15212;48.830;8.730;2023-07-28T00:32:29;3.95;;;2.70;;
27847;SDS011;15212;48.830;8.730;2023-07-28T00:34:57;5.92;;;2.70;;
27847;SDS011;15212;48.830;8.730;2023-07-28T00:37:25;4.45;;;2.87;;
27847;SDS011;15212;48.830;8.730;2023-07-28T00:39:54;5.47;;;2.70;;
27847;SDS011;15212;48.830;8.730;2023-07-28T00:42:22;4.33;;;2.80;;
27847;SDS011;15212;48.830;8.730;2023-07-28T00:44:51;5.95;;;2.80;;
27847;SDS011;15212;48.830;8.730;2023-07-28T00:47:19;3.98;;;2.87;;
27847;SDS011;15212;48.830;8.730;2023-07-28T00:49:47;5.25;;;2.47;;
27847;SDS011;15212;48.830;8.730;2023-07-28T00:52:16;5.90;;;2.67;;
27847;SDS011;15212;48.830;8.730;2023-07-28T00:54:44;4.17;;;2.30;;
27847;SDS011;15212;48.830;8.730;2023-07-28T00:57:13;4.03;;;2.72;;
27847;SDS011;15212;48.830;8.730;2023-07-28T00:59:43;4.15;;;2.72;;
27847;SDS011;15212;48.830;8.730;2023-07-28T01:02:13;4.22;;;2.60;;
27847;SDS011;15212;48.830;8.730;2023-07-28T01:04:41;5.10;;;2.55;;
27847;SDS011;15212;48.830;8.730;2023-07-28T01:07:10;5.87;;;2.95;;
27847;SDS011;15212;48.830;8.730;2023-07-28T01:10:06;6.97;;;2.70;;
27847;SDS011;15212;48.830;8.730;2023-07-28T01:12:42;5.08;;;2.70;;
27847;SDS011;15212;48.830;8.730;2023-07-28T01:15:10;3.98;;;2.80;;
27847;SDS011;15212;48.830;8.730;2023-07-28T01:17:41;4.10;;;3.02;;
27847;SDS011;15212;48.830;8.730;2023-07-28T01:20:10;4.58;;;2.70;;
27847;SDS011;15212;48.830;8.730;2023-07-28T01:28:23;4.47;;;2.70;;
27847;SDS011;15212;48.830;8.730;2023-07-28T01:30:51;5.40;;;2.72;;
27847;SDS011;15212;48.830;8.730;2023-07-28T01:33:20;6.05;;;2.70;;
27847;SDS011;15212;48.830;8.730;2023-07-28T01:35:48;4.03;;;2.67;;
27847;SDS011;15212;48.830;8.730;2023-07-28T01:38:17;8.38;;;2.85;;
27847;SDS011;15212;48.830;8.730;2023-07-28T01:40:45;3.33;;;2.60;;
27847;SDS011;15212;48.830;8.730;2023-07-28T01:43:13;3.98;;;2.62;;
27847;SDS011;15212;48.830;8.730;2023-07-28T01:45:42;4.05;;;2.72;;
27847;SDS011;15212;48.830;8.730;2023-07-28T01:48:10;3.80;;;2.37;;
27847;SDS011;15212;48.830;8.730;2023-07-28T01:50:39;4.62;;;2.67;;
27847;SDS011;15212;48.830;8.730;2023-07-28T01:53:07;3.95;;;2.60;;
27847;SDS011;15212;48.830;8.730;2023-07-28T01:55:35;3.62;;;2.62;;
27847;SDS011;15212;48.830;8.730;2023-07-28T01:58:04;6.00;;;2.80;;
27847;SDS011;15212;48.830;8.730;2023-07-28T02:00:32;3.65;;;2.72;;
27847;SDS011;15212;48.830;8.730;2023-07-28T02:03:00;3.92;;;2.58;;
27847;SDS011;15212;48.830;8.730;2023-07-28T02:05:29;7.25;;;2.52;;
27847;SDS011;15212;48.830;8.730;2023-07-28T02:07:58;6.87;;;2.80;;
27847;SDS011;15212;48.830;8.730;2023-07-28T02:10:29;4.12;;;2.60;;
27847;SDS011;15212;48.830;8.730;2023-07-28T02:12:56;8.05;;;2.72;;
27847;SDS011;15212;48.830;8.730;2023-07-28T02:15:25;3.85;;;2.75;;
27847;SDS011;15212;48.830;8.730;2023-07-28T02:17:53;3.75;;;2.65;;
27847;SDS011;15212;48.830;8.730;2023-07-28T02:20:22;4.55;;;2.95;;
27847;SDS011;15212;48.830;8.730;2023-07-28T02:22:50;4.15;;;2.42;;
27847;SDS011;15212;48.830;8.730;2023-07-28T02:25:18;7.58;;;2.72;;
27847;SDS011;15212;48.830;8.730;2023-07-28T02:27:47;4.60;;;3.00;;
27847;SDS011;15212;48.830;8.730;2023-07-28T02:30:15;5.85;;;2.83;;
27847;SDS011;15212;48.830;8.730;2023-07-28T02:32:44;3.40;;;2.35;;
27847;SDS011;15212;48.830;8.730;2023-07-28T02:35:12;5.17;;;2.67;;
27847;SDS011;15212;48.830;8.730;2023-07-28T02:37:40;4.22;;;2.90;;
27847;SDS011;15212;48.830;8.730;2023-07-28T02:40:09;5.30;;;3.00;;
27847;SDS011;15212;48.830;8.730;2023-07-28T02:42:38;4.33;;;3.05;;
27847;SDS011;15212;48.830;8.730;2023-07-28T02:45:07;3.62;;;2.33;;
27847;SDS011;15212;48.830;8.730;2023-07-28T02:47:36;5.15;;;2.80;;
27847;SDS011;15212;48.830;8.730;2023-07-28T02:50:04;7.15;;;2.90;;
27847;SDS011;15212;48.830;8.730;2023-07-28T02:52:33;5.95;;;2.80;;
27847;SDS011;15212;48.830;8.730;2023-07-28T02:55:01;4.42;;;2.80;;
27847;SDS011;15212;48.830;8.730;2023-07-28T02:57:30;5.15;;;3.20;;
27847;SDS011;15212;48.830;8.730;2023-07-28T02:59:58;4.08;;;2.80;;
27847;SDS011;15212;48.830;8.730;2023-07-28T03:02:27;3.77;;;2.85;;
27847;SDS011;15212;48.830;8.730;2023-07-28T03:04:55;5.70;;;3.40;;
27847;SDS011;15212;48.830;8.730;2023-07-28T03:07:23;4.65;;;2.80;;
27847;SDS011;15212;48.830;8.730;2023-07-28T03:09:52;5.83;;;3.70;;
27847;SDS011;15212;48.830;8.730;2023-07-28T03:12:20;9.45;;;3.90;;
27847;SDS011;15212;48.830;8.730;2023-07-28T03:14:49;6.03;;;3.60;;
27847;SDS011;15212;48.830;8.730;2023-07-28T03:17:17;7.45;;;3.95;;
27847;SDS011;15212;48.830;8.730;2023-07-28T03:19:45;6.05;;;4.08;;
27847;SDS011;15212;48.830;8.730;2023-07-28T03:22:14;6.65;;;4.75;;
27847;SDS011;15212;48.830;8.730;2023-07-28T03:24:42;8.90;;;5.05;;
27847;SDS011;15212;48.830;8.730;2023-07-28T03:27:12;8.15;;;4.47;;
27847;SDS011;15212;48.830;8.730;2023-07-28T03:29:40;6.05;;;3.72;;
27847;SDS011;15212;48.830;8.730;2023-07-28T03:32:09;7.65;;;4.25;;
27847;SDS011;15212;48.830;8.730;2023-07-28T03:34:38;6.47;;;4.28;;
27847;SDS011;15212;48.830;8.730;2023-07-28T03:37:07;6.75;;;4.47;;
27847;SDS011;15212;48.830;8.730;2023-07-28T03:39:35;7.15;;;4.37;;
27847;SDS011;15212;48.830;8.730;2023-07-28T03:42:04;9.43;;;4.60;;
27847;SDS011;15212;48.830;8.730;2023-07-28T03:44:33;7.62;;;3.77;;
27847;SDS011;15212;48.830;8.730;2023-07-28T03:47:03;6.97;;;4.30;;
27847;SDS011;15212;48.830;8.730;2023-07-28T03:49:32;6.45;;;4.50;;
27847;SDS011;15212;48.830;8.730;2023-07-28T03:52:00;9.70;;;4.53;;
27847;SDS011;15212;48.830;8.730;2023-07-28T03:54:29;5.92;;;4.00;;
27847;SDS011;15212;48.830;8.730;2023-07-28T03:56:58;8.60;;;3.95;;
27847;SDS011;15212;48.830;8.730;2023-07-28T03:59:26;4.55;;;3.55;;
27847;SDS011;15212;48.830;8.730;2023-07-28T04:01:55;8.25;;;4.03;;
27847;SDS011;15212;48.830;8.730;2023-07-28T04:04:24;7.58;;;3.95;;
27847;SDS011;15212;48.830;8.730;2023-07-28T04:06:52;5.83;;;4.00;;
27847;SDS011;15212;48.830;8.730;2023-07-28T04:09:21;6.67;;;3.77;;
27847;SDS011;15212;48.830;8.730;2023-07-28T04:11:49;5.92;;;4.10;;
27847;SDS011;15212;48.830;8.730;2023-07-28T04:14:17;9.38;;;4.05;;
27847;SDS011;15212;48.830;8.730;2023-07-28T04:16:46;5.20;;;3.80;;
27847;SDS011;15212;48.830;8.730;2023-07-28T04:19:14;6.20;;;3.60;;
27847;SDS011;15212;48.830;8.730;2023-07-28T04:21:43;6.75;;;3.22;;
27847;SDS011;15212;48.830;8.730;2023-07-28T04:24:11;5.12;;;3.50;;
27847;SDS011;15212;48.830;8.730;2023-07-28T04:26:40;5.15;;;3.40;;
27847;SDS011;15212;48.830;8.730;2023-07-28T04:29:08;5.70;;;3.60;;
27847;SDS011;15212;48.830;8.730;2023-07-28T04:31:37;4.45;;;3.60;;
27847;SDS011;15212;48.830;8.730;2023-07-28T04:34:05;9.05;;;3.65;;
27847;SDS011;15212;48.830;8.730;2023-07-28T04:36:34;6.67;;;3.95;;
27847;SDS011;15212;48.830;8.730;2023-07-28T04:39:03;5.47;;;3.77;;
27847;SDS011;15212;48.830;8.730;2023-07-28T04:41:31;6.30;;;4.53;;
27847;SDS011;15212;48.830;8.730;2023-07-28T04:43:59;7.35;;;5.03;;
27847;SDS011;15212;48.830;8.730;2023-07-28T04:46:28;6.55;;;4.75;;
27847;SDS011;15212;48.830;8.730;2023-07-28T04:48:57;6.35;;;4.28;;
27847;SDS011;15212;48.830;8.730;2023-07-28T04:51:25;8.15;;;4.45;;
27847;SDS011;15212;48.830;8.730;2023-07-28T04:53:53;7.37;;;4.25;;
27847;SDS011;15212;48.830;8.730;2023-07-28T04:56:22;8.25;;;4.42;;
27847;SDS011;15212;48.830;8.730;2023-07-28T04:58:50;6.80;;;4.35;;
27847;SDS011;15212;48.830;8.730;2023-07-28T05:01:19;7.80;;;4.15;;
27847;SDS011;15212;48.830;8.730;2023-07-28T05:03:47;8.48;;;4.30;;
27847;SDS011;15212;48.830;8.730;2023-07-28T05:06:15;7.28;;;4.85;;
27847;SDS011;15212;48.830;8.730;2023-07-28T05:08:44;6.67;;;4.50;;
27847;SDS011;15212;48.830;8.730;2023-07-28T05:11:12;5.65;;;3.87;;
27847;SDS011;15212;48.830;8.730;2023-07-28T05:13:40;5.60;;;4.42;;
27847;SDS011;15212;48.830;8.730;2023-07-28T05:16:09;6.00;;;4.28;;
27847;SDS011;15212;48.830;8.730;2023-07-28T05:18:38;5.67;;;4.20;;
27847;SDS011;15212;48.830;8.730;2023-07-28T05:21:08;7.35;;;4.42;;
27847;SDS011;15212;48.830;8.730;2023-07-28T05:23:36;6.28;;;3.75;;
27847;SDS011;15212;48.830;8.730;2023-07-28T05:26:05;5.83;;;4.28;;
27847;SDS011;15212;48.830;8.730;2023-07-28T05:28:34;7.00;;;4.35;;
27847;SDS011;15212;48.830;8.730;2023-07-28T05:31:03;6.22;;;3.98;;
27847;SDS011;15212;48.830;8.730;2023-07-28T05:33:33;7.75;;;4.50;;
27847;SDS011;15212;48.830;8.730;2023-07-28T05:36:07;8.70;;;4.28;;
27847;SDS011;15212;48.830;8.730;2023-07-28T05:38:32;6.90;;;4.53;;
27847;SDS011;15212;48.830;8.730;2023-07-28T05:41:01;6.20;;;3.87;;
27847;SDS011;15212;48.830;8.730;2023-07-28T05:43:31;6.15;;;4.17;;
27847;SDS011;15212;48.830;8.730;2023-07-28T05:46:00;8.68;;;4.53;;
27847;SDS011;15212;48.830;8.730;2023-07-28T05:48:28;4.37;;;3.55;;
27847;SDS011;15212;48.830;8.730;2023-07-28T05:50:57;5.03;;;3.65;;
27847;SDS011;15212;48.830;8.730;2023-07-28T05:53:25;4.67;;;3.58;;
27847;SDS011;15212;48.830;8.730;2023-07-28T05:55:54;5.72;;;3.77;;
27847;SDS011;15212;48.830;8.730;2023-07-28T05:58:22;6.85;;;3.80;;
27847;SDS011;15212;48.830;8.730;2023-07-28T06:00:51;4.22;;;3.10;;
27847;SDS011;15212;48.830;8.730;2023-07-28T06:03:19;3.75;;;3.20;;
27847;SDS011;15212;48.830;8.730;2023-07-28T06:05:48;5.03;;;3.17;;
27847;SDS011;15212;48.830;8.730;2023-07-28T06:08:16;3.50;;;2.70;;
27847;SDS011;15212;48.830;8.730;2023-07-28T06:10:45;5.22;;;3.10;;
27847;SDS011;15212;48.830;8.730;2023-07-28T06:13:13;5.25;;;3.40;;
27847;SDS011;15212;48.830;8.730;2023-07-28T06:15:42;3.22;;;2.77;;
27847;SDS011;15212;48.830;8.730;2023-07-28T06:18:10;3.80;;;3.25;;
27847;SDS011;15212;48.830;8.730;2023-07-28T06:20:42;5.85;;;2.80;;
27847;SDS011;15212;48.830;8.730;2023-07-28T06:23:11;3.33;;;2.47;;
27847;SDS011;15212;48.830;8.730;2023-07-28T06:25:39;2.50;;;2.00;;
27847;SDS011;15212;48.830;8.730;2023-07-28T06:28:11;2.58;;;2.05;;
27847;SDS011;15212;48.830;8.730;2023-07-28T06:30:40;2.65;;;1.82;;
27847;SDS011;15212;48.830;8.730;2023-07-28T06:33:09;2.77;;;1.98;;
27847;SDS011;15212;48.830;8.730;2023-07-28T06:35:37;2.55;;;1.95;;
27847;SDS011;15212;48.830;8.730;2023-07-28T06:38:05;3.87;;;2.25;;
27847;SDS011;15212;48.830;8.730;2023-07-28T06:40:34;2.62;;;1.85;;
27847;SDS011;15212;48.830;8.730;2023-07-28T06:43:03;2.27;;;1.57;;
27847;SDS011;15212;48.830;8.730;2023-07-28T06:45:33;2.60;;;1.67;;
27847;SDS011;15212;48.830;8.730;2023-07-28T06:48:01;2.47;;;1.77;;
27847;SDS011;15212;48.830;8.730;2023-07-28T06:50:30;2.47;;;1.90;;
27847;SDS011;15212;48.830;8.730;2023-07-28T06:52:58;3.12;;;1.90;;
27847;SDS011;15212;48.830;8.730;2023-07-28T06:55:27;2.17;;;1.70;;
27847;SDS011;15212;48.830;8.730;2023-07-28T06:57:55;2.85;;;1.60;;
27847;SDS011;15212;48.830;8.730;2023-07-28T07:00:24;2.08;;;1.70;;
27847;SDS011;15212;48.830;8.730;2023-07-28T07:02:52;2.42;;;1.60;;
27847;SDS011;15212;48.830;8.730;2023-07-28T07:05:21;2.17;;;1.55;;
27847;SDS011;15212;48.830;8.730;2023-07-28T07:07:49;2.30;;;1.85;;
27847;SDS011;15212;48.830;8.730;2023-07-28T07:10:18;2.52;;;1.57;;
27847;SDS011;15212;48.830;8.730;2023-07-28T07:12:48;1.90;;;1.62;;
27847;SDS011;15212;48.830;8.730;2023-07-28T07:15:16;3.50;;;1.62;;
27847;SDS011;15212;48.830;8.730;2023-07-28T07:17:44;2.12;;;1.70;;
27847;SDS011;15212;48.830;8.730;2023-07-28T07:20:13;2.33;;;1.77;;
27847;SDS011;15212;48.830;8.730;2023-07-28T07:22:41;2.67;;;1.80;;
27847;SDS011;15212;48.830;8.730;2023-07-28T07:25:10;2.72;;;2.02;;
27847;SDS011;15212;48.830;8.730;2023-07-28T07:27:38;2.02;;;1.65;;
27847;SDS011;15212;48.830;8.730;2023-07-28T07:30:07;2.52;;;1.87;;
27847;SDS011;15212;48.830;8.730;2023-07-28T07:32:36;3.17;;;2.17;;
27847;SDS011;15212;48.830;8.730;2023-07-28T07:35:04;2.87;;;2.10;;
27847;SDS011;15212;48.830;8.730;2023-07-28T07:37:34;3.80;;;2.37;;
27847;SDS011;15212;48.830;8.730;2023-07-28T07:40:02;3.20;;;2.37;;
27847;SDS011;15212;48.830;8.730;2023-07-28T07:42:46;5.25;;;2.40;;
27847;SDS011;15212;48.830;8.730;2023-07-28T07:45:15;3.58;;;2.20;;
27847;SDS011;15212;48.830;8.730;2023-07-28T07:47:44;2.75;;;2.00;;
27847;SDS011;15212;48.830;8.730;2023-07-28T07:50:12;3.67;;;2.00;;
27847;SDS011;15212;48.830;8.730;2023-07-28T07:52:40;3.05;;;2.25;;
27847;SDS011;15212;48.830;8.730;2023-07-28T07:55:09;3.85;;;2.20;;
27847;SDS011;15212;48.830;8.730;2023-07-28T07:57:38;2.72;;;1.72;;
27847;SDS011;15212;48.830;8.730;2023-07-28T08:00:07;3.65;;;2.15;;
27847;SDS011;15212;48.830;8.730;2023-07-28T08:02:37;2.80;;;1.98;;
27847;SDS011;15212;48.830;8.730;2023-07-28T08:05:05;3.00;;;1.92;;
27847;SDS011;15212;48.830;8.730;2023-07-28T08:07:35;2.10;;;1.87;;
27847;SDS011;15212;48.830;8.730;2023-07-28T08:10:04;5.15;;;2.17;;
27847;SDS011;15212;48.830;8.730;2023-07-28T08:12:33;3.60;;;1.90;;
27847;SDS011;15212;48.830;8.730;2023-07-28T08:15:01;4.97;;;2.08;;
27847;SDS011;15212;48.830;8.730;2023-07-28T08:17:29;3.83;;;1.98;;
27847;SDS011;15212;48.830;8.730;2023-07-28T08:19:58;3.12;;;2.27;;
27847;SDS011;15212;48.830;8.730;2023-07-28T08:22:26;5.45;;;2.17;;
27847;SDS011;15212;48.830;8.730;2023-07-28T08:24:55;3.85;;;2.30;;
27847;SDS011;15212;48.830;8.730;2023-07-28T08:27:23;3.55;;;2.30;;
27847;SDS011;15212;48.830;8.730;2023-07-28T08:29:51;2.77;;;2.15;;
27847;SDS011;15212;48.830;8.730;2023-07-28T08:32:20;4.08;;;2.55;;
27847;SDS011;15212;48.830;8.730;2023-07-28T08:34:48;3.45;;;2.27;;
27847;SDS011;15212;48.830;8.730;2023-07-28T08:37:17;3.70;;;2.20;;
27847;SDS011;15212;48.830;8.730;2023-07-28T08:39:45;4.20;;;2.67;;
27847;SDS011;15212;48.830;8.730;2023-07-28T08:42:14;3.83;;;2.65;;
27847;SDS011;15212;48.830;8.730;2023-07-28T08:44:42;4.28;;;2.30;;
27847;SDS011;15212;48.830;8.730;2023-07-28T08:47:13;4.92;;;2.90;;
27847;SDS011;15212;48.830;8.730;2023-07-28T08:49:41;5.58;;;2.40;;
27847;SDS011;15212;48.830;8.730;2023-07-28T08:52:09;4.40;;;2.50;;
27847;SDS011;15212;48.830;8.730;2023-07-28T08:54:38;4.42;;;2.87;;
27847;SDS011;15212;48.830;8.730;2023-07-28T08:57:08;5.47;;;2.85;;
27847;SDS011;15212;48.830;8.730;2023-07-28T08:59:38;5.30;;;2.60;;
27847;SDS011;15212;48.830;8.730;2023-07-28T09:02:09;3.58;;;2.58;;
27847;SDS011;15212;48.830;8.730;2023-07-28T09:04:37;4.42;;;2.90;;
27847;SDS011;15212;48.830;8.730;2023-07-28T09:07:05;4.65;;;2.85;;
27847;SDS011;15212;48.830;8.730;2023-07-28T09:09:34;5.90;;;2.90;;
27847;SDS011;15212;48.830;8.730;2023-07-28T09:12:07;3.12;;;2.45;;
27847;SDS011;15212;48.830;8.730;2023-07-28T09:14:36;3.90;;;2.60;;
27847;SDS011;15212;48.830;8.730;2023-07-28T09:17:07;4.35;;;2.85;;
27847;SDS011;15212;48.830;8.730;2023-07-28T09:19:51;4.60;;;2.80;;
27847;SDS011;15212;48.830;8.730;2023-07-28T09:22:22;4.10;;;2.67;;
27847;SDS011;15212;48.830;8.730;2023-07-28T09:24:50;6.17;;;2.40;;
27847;SDS011;15212;48.830;8.730;2023-07-28T09:27:24;3.27;;;2.33;;
27847;SDS011;15212;48.830;8.730;2023-07-28T09:29:55;4.87;;;2.47;;
27847;SDS011;15212;48.830;8.730;2023-07-28T09:32:27;2.75;;;1.65;;
27847;SDS011;15212;48.830;8.730;2023-07-28T09:35:07;2.60;;;2.05;;
27847;SDS011;15212;48.830;8.730;2023-07-28T09:37:39;4.60;;;2.10;;
27847;SDS011;15212;48.830;8.730;2023-07-28T09:40:10;2.75;;;1.80;;
27847;SDS011;15212;48.830;8.730;2023-07-28T09:42:42;2.25;;;1.67;;
27847;SDS011;15212;48.830;8.730;2023-07-28T09:45:14;2.42;;;1.60;;
27847;SDS011;15212;48.830;8.730;2023-07-28T09:47:44;2.02;;;1.40;;
27847;SDS011;15212;48.830;8.730;2023-07-28T09:50:15;2.50;;;1.67;;
27847;SDS011;15212;48.830;8.730;2023-07-28T09:52:46;2.25;;;1.37;;
27847;SDS011;15212;48.830;8.730;2023-07-28T09:55:16;2.65;;;1.47;;
27847;SDS011;15212;48.830;8.730;2023-07-28T09:57:46;2.08;;;1.42;;
27847;SDS011;15212;48.830;8.730;2023-07-28T10:00:21;3.12;;;1.40;;
27847;SDS011;15212;48.830;8.730;2023-07-28T10:02:51;3.10;;;1.52;;
27847;SDS011;15212;48.830;8.730;2023-07-28T10:05:20;2.08;;;1.47;;
27847;SDS011;15212;48.830;8.730;2023-07-28T10:07:49;2.12;;;1.32;;
27847;SDS011;15212;48.830;8.730;2023-07-28T10:10:18;3.50;;;1.57;;
27847;SDS011;15212;48.830;8.730;2023-07-28T10:12:50;2.20;;;1.50;;
27847;SDS011;15212;48.830;8.730;2023-07-28T10:15:28;1.77;;;1.30;;
27847;SDS011;15212;48.830;8.730;2023-07-28T10:17:59;1.47;;;1.27;;
27847;SDS011;15212;48.830;8.730;2023-07-28T10:20:29;2.83;;;1.75;;
27847;SDS011;15212;48.830;8.730;2023-07-28T10:23:14;3.67;;;1.45;;
27847;SDS011;15212;48.830;8.730;2023-07-28T10:25:46;2.77;;;1.37;;
27847;SDS011;15212;48.830;8.730;2023-07-28T10:31:10;2.12;;;1.40;;
27847;SDS011;15212;48.830;8.730;2023-07-28T10:33:44;3.25;;;1.65;;
27847;SDS011;15212;48.830;8.730;2023-07-28T10:39:00;2.25;;;1.35;;
27847;SDS011;15212;48.830;8.730;2023-07-28T10:41:37;2.45;;;1.62;;
27847;SDS011;15212;48.830;8.730;2023-07-28T10:44:08;2.55;;;1.82;;
27847;SDS011;15212;48.830;8.730;2023-07-28T10:46:36;3.37;;;1.90;;
27847;SDS011;15212;48.830;8.730;2023-07-28T10:49:05;3.30;;;1.80;;
27847;SDS011;15212;48.830;8.730;2023-07-28T10:51:34;2.35;;;1.50;;
27847;SDS011;15212;48.830;8.730;2023-07-28T10:54:03;2.72;;;1.70;;
27847;SDS011;15212;48.830;8.730;2023-07-28T10:56:32;3.10;;;1.90;;
27847;SDS011;15212;48.830;8.730;2023-07-28T10:59:01;2.92;;;2.00;;
27847;SDS011;15212;48.830;8.730;2023-07-28T11:01:32;4.62;;;2.00;;
27847;SDS011;15212;48.830;8.730;2023-07-28T11:04:09;4.62;;;2.05;;
27847;SDS011;15212;48.830;8.730;2023-07-28T11:06:49;2.72;;;1.95;;
27847;SDS011;15212;48.830;8.730;2023-07-28T11:09:19;3.58;;;1.92;;
27847;SDS011;15212;48.830;8.730;2023-07-28T11:11:50;2.52;;;1.67;;
27847;SDS011;15212;48.830;8.730;2023-07-28T11:14:19;2.65;;;1.80;;
27847;SDS011;15212;48.830;8.730;2023-07-28T11:16:49;3.62;;;2.00;;
27847;SDS011;15212;48.830;8.730;2023-07-28T11:19:18;2.85;;;1.98;;
27847;SDS011;15212;48.830;8.730;2023-07-28T11:21:48;4.42;;;2.00;;
27847;SDS011;15212;48.830;8.730;2023-07-28T11:24:20;3.10;;;2.08;;
27847;SDS011;15212;48.830;8.730;2023-07-28T11:26:49;2.98;;;1.98;;
27847;SDS011;15212;48.830;8.730;2023-07-28T11:29:18;3.00;;;1.80;;
27847;SDS011;15212;48.830;8.730;2023-07-28T11:31:47;4.30;;;2.00;;
27847;SDS011;15212;48.830;8.730;2023-07-28T11:34:17;5.75;;;2.58;;
27847;SDS011;15212;48.830;8.730;2023-07-28T11:36:46;3.50;;;2.20;;
27847;SDS011;15212;48.830;8.730;2023-07-28T11:39:15;4.10;;;2.37;;
27847;SDS011;15212;48.830;8.730;2023-07-28T11:41:45;3.37;;;2.30;;
27847;SDS011;15212;48.830;8.730;2023-07-28T11:44:14;4.33;;;2.65;;
27847;SDS011;15212;48.830;8.730;2023-07-28T11:46:43;4.33;;;2.47;;
27847;SDS011;15212;48.830;8.730;2023-07-28T11:49:19;4.25;;;2.30;;
27847;SDS011;15212;48.830;8.730;2023-07-28T11:51:54;6.92;;;2.15;;
27847;SDS011;15212;48.830;8.730;2023-07-28T11:54:21;5.10;;;2.77;;
27847;SDS011;15212;48.830;8.730;2023-07-28T11:56:53;4.12;;;2.40;;
27847;SDS011;15212;48.830;8.730;2023-07-28T11:59:23;4.62;;;2.60;;
27847;SDS011;15212;48.830;8.730;2023-07-28T12:01:59;3.65;;;2.40;;
27847;SDS011;15212;48.830;8.730;2023-07-28T12:04:35;4.58;;;2.60;;
27847;SDS011;15212;48.830;8.730;2023-07-28T12:07:08;4.45;;;2.70;;
27847;SDS011;15212;48.830;8.730;2023-07-28T12:12:22;4.37;;;2.87;;
27847;SDS011;15212;48.830;8.730;2023-07-28T12:14:55;4.50;;;2.77;;
27847;SDS011;15212;48.830;8.730;2023-07-28T12:17:28;7.87;;;3.12;;
27847;SDS011;15212;48.830;8.730;2023-07-28T12:20:02;3.27;;;2.75;;
27847;SDS011;15212;48.830;8.730;2023-07-28T12:22:34;4.47;;;2.72;;
27847;SDS011;15212;48.830;8.730;2023-07-28T12:25:04;4.60;;;2.77;;
27847;SDS011;15212;48.830;8.730;2023-07-28T12:27:33;4.65;;;3.05;;
27847;SDS011;15212;48.830;8.730;2023-07-28T12:30:02;3.52;;;2.47;;
27847;SDS011;15212;48.830;8.730;2023-07-28T12:32:33;4.78;;;2.87;;
27847;SDS011;15212;48.830;8.730;2023-07-28T12:35:02;4.33;;;3.15;;
27847;SDS011;15212;48.830;8.730;2023-07-28T12:37:30;3.98;;;2.72;;
27847;SDS011;15212;48.830;8.730;2023-07-28T12:39:59;4.80;;;2.98;;
27847;SDS011;15212;48.830;8.730;2023-07-28T12:42:28;3.45;;;2.52;;
27847;SDS011;15212;48.830;8.730;2023-07-28T12:44:56;4.50;;;2.85;;
27847;SDS011;15212;48.830;8.730;2023-07-28T12:47:25;3.37;;;2.60;;
27847;SDS011;15212;48.830;8.730;2023-07-28T12:49:53;3.87;;;2.50;;
27847;SDS011;15212;48.830;8.730;2023-07-28T12:52:22;3.22;;;2.42;;
27847;SDS011;15212;48.830;8.730;2023-07-28T12:54:50;3.65;;;2.40;;
27847;SDS011;15212;48.830;8.730;2023-07-28T12:57:19;3.65;;;2.60;;
27847;SDS011;15212;48.830;8.730;2023-07-28T12:59:47;3.45;;;2.25;;
27847;SDS011;15212;48.830;8.730;2023-07-28T13:02:16;3.67;;;2.55;;
27847;SDS011;15212;48.830;8.730;2023-07-28T13:04:44;5.45;;;3.25;;
27847;SDS011;15212;48.830;8.730;2023-07-28T13:07:13;4.25;;;3.00;;
27847;SDS011;15212;48.830;8.730;2023-07-28T13:09:42;4.28;;;2.83;;
27847;SDS011;15212;48.830;8.730;2023-07-28T13:12:11;5.95;;;2.77;;
27847;SDS011;15212;48.830;8.730;2023-07-28T13:14:39;4.72;;;3.20;;
27847;SDS011;15212;48.830;8.730;2023-07-28T13:17:08;4.20;;;3.00;;
27847;SDS011;15212;48.830;8.730;2023-07-28T13:19:37;7.00;;;3.12;;
27847;SDS011;15212;48.830;8.730;2023-07-28T13:22:06;6.17;;;3.15;;
27847;SDS011;15212;48.830;8.730;2023-07-28T13:24:34;4.97;;;3.17;;
27847;SDS011;15212;48.830;8.730;2023-07-28T13:27:04;5.20;;;3.33;;
27847;SDS011;15212;48.830;8.730;2023-07-28T13:29:33;6.55;;;3.35;;
27847;SDS011;15212;48.830;8.730;2023-07-28T13:32:01;7.30;;;3.85;;
27847;SDS011;15212;48.830;8.730;2023-07-28T13:34:30;4.83;;;3.22;;
27847;SDS011;15212;48.830;8.730;2023-07-28T13:36:58;3.85;;;2.77;;
27847;SDS011;15212;48.830;8.730;2023-07-28T13:39:26;4.08;;;2.60;;
27847;SDS011;15212;48.830;8.730;2023-07-28T13:41:55;4.70;;;3.00;;
27847;SDS011;15212;48.830;8.730;2023-07-28T13:44:23;4.33;;;2.85;;
27847;SDS011;15212;48.830;8.730;2023-07-28T13:46:51;4.08;;;2.90;;
27847;SDS011;15212;48.830;8.730;2023-07-28T13:49:21;5.53;;;3.00;;
27847;SDS011;15212;48.830;8.730;2023-07-28T13:51:50;3.65;;;2.65;;
27847;SDS011;15212;48.830;8.730;2023-07-28T13:54:18;6.80;;;3.50;;
27847;SDS011;15212;48.830;8.730;2023-07-28T13:56:47;3.95;;;2.95;;
27847;SDS011;15212;48.830;8.730;2023-07-28T13:59:15;5.08;;;2.92;;
27847;SDS011;15212;48.830;8.730;2023-07-28T14:01:43;3.47;;;2.50;;
27847;SDS011;15212;48.830;8.730;2023-07-28T14:04:12;3.80;;;2.80;;
27847;SDS011;15212;48.830;8.730;2023-07-28T14:06:40;4.40;;;2.67;;
27847;SDS011;15212;48.830;8.730;2023-07-28T14:09:08;5.95;;;2.98;;
27847;SDS011;15212;48.830;8.730;2023-07-28T14:11:37;4.22;;;3.12;;
27847;SDS011;15212;48.830;8.730;2023-07-28T14:14:05;4.87;;;3.20;;
27847;SDS011;15212;48.830;8.730;2023-07-28T14:16:34;6.03;;;3.90;;
27847;SDS011;15212;48.830;8.730;2023-07-28T14:19:02;5.60;;;4.10;;
27847;SDS011;15212;48.830;8.730;2023-07-28T14:21:30;6.15;;;3.80;;
27847;SDS011;15212;48.830;8.730;2023-07-28T14:23:59;6.55;;;3.22;;
27847;SDS011;15212;48.830;8.730;2023-07-28T14:26:27;4.47;;;3.33;;
27847;SDS011;15212;48.830;8.730;2023-07-28T14:28:56;4.97;;;3.25;;
27847;SDS011;15212;48.830;8.730;2023-07-28T14:31:24;5.12;;;3.08;;
27847;SDS011;15212;48.830;8.730;2023-07-28T14:33:52;3.20;;;2.67;;
27847;SDS011;15212;48.830;8.730;2023-07-28T14:36:21;3.85;;;2.70;;
27847;SDS011;15212;48.830;8.730;2023-07-28T14:38:49;3.80;;;2.42;;
27847;SDS011;15212;48.830;8.730;2023-07-28T14:41:17;3.50;;;2.35;;
27847;SDS011;15212;48.830;8.730;2023-07-28T14:43:46;2.87;;;2.17;;
27847;SDS011;15212;48.830;8.730;2023-07-28T14:46:14;2.55;;;1.90;;
27847;SDS011;15212;48.830;8.730;2023-07-28T14:48:43;2.95;;;2.10;;
27847;SDS011;15212;48.830;8.730;2023-07-28T14:51:11;2.92;;;2.30;;
27847;SDS011;15212;48.830;8.730;2023-07-28T14:53:40;4.97;;;2.55;;
27847;SDS011;15212;48.830;8.730;2023-07-28T14:56:08;3.52;;;2.47;;
27847;SDS011;15212;48.830;8.730;2023-07-28T14:58:36;5.08;;;2.30;;
27847;SDS011;15212;48.830;8.730;2023-07-28T15:01:06;3.77;;;2.40;;
27847;SDS011;15212;48.830;8.730;2023-07-28T15:03:38;3.72;;;2.70;;
27847;SDS011;15212;48.830;8.730;2023-07-28T15:06:07;3.25;;;2.15;;
27847;SDS011;15212;48.830;8.730;2023-07-28T15:08:35;3.27;;;2.22;;
27847;SDS011;15212;48.830;8.730;2023-07-28T15:11:04;4.22;;;2.62;;
27847;SDS011;15212;48.830;8.730;2023-07-28T15:13:32;4.92;;;2.90;;